N216TB MDPC-TIST
Flight info
| Callsign | N216TB |
|---|---|
| Flight time | 0h 46m |
| Altitude | 15000 |
| Route | DCT ANTEX DCT BQN DCT SJU DCT CHAKA DCT KUTHO DCT JAQYY DCT |
| Aircraft | PC12/L-L/C |
Departure
| Time | 2026-04-26 12:00 |
|---|---|
| Airport | Punta Cana International Airport (MDPC) |
Arrival
| Time | 2026-04-26 12:46 |
|---|---|
| Airport | Cyril E. King Airport (TIST) |
| Time | Latitude | Longitude | Altitude | Speed | Heading |
|---|---|---|---|---|---|
| 2026-04-26 11:39 | 18.56359 | -68.36603 | 47 ft | 0 kts | 176° |
| 2026-04-26 11:54 | 18.56345 | -68.36601 | 47 ft | 1 kts | 156° |
| 2026-04-26 11:54 | 18.56351 | -68.36585 | 47 ft | 3 kts | 333° |
| 2026-04-26 11:54 | 18.56400 | -68.36607 | 48 ft | 9 kts | 356° |
| 2026-04-26 11:54 | 18.56457 | -68.36611 | 48 ft | 10 kts | 356° |
| 2026-04-26 11:55 | 18.56513 | -68.36663 | 48 ft | 15 kts | 297° |
| 2026-04-26 11:55 | 18.56526 | -68.36707 | 48 ft | 6 kts | 277° |
| 2026-04-26 11:55 | 18.56591 | -68.36771 | 49 ft | 20 kts | 355° |
| 2026-04-26 11:55 | 18.56722 | -68.36756 | 50 ft | 25 kts | 358° |
| 2026-04-26 11:56 | 18.56941 | -68.36787 | 48 ft | 38 kts | 348° |
| 2026-04-26 11:56 | 18.57133 | -68.36824 | 46 ft | 10 kts | 348° |
| 2026-04-26 11:56 | 18.57211 | -68.36844 | 46 ft | 15 kts | 339° |
| 2026-04-26 11:56 | 18.57238 | -68.36857 | 46 ft | 4 kts | 334° |
| 2026-04-26 11:57 | 18.57278 | -68.36884 | 46 ft | 7 kts | 320° |
| 2026-04-26 11:57 | 18.57311 | -68.36922 | 46 ft | 9 kts | 302° |
| 2026-04-26 11:57 | 18.57313 | -68.36926 | 46 ft | 0 kts | 302° |
| 2026-04-26 11:58 | 18.57329 | -68.36953 | 46 ft | 11 kts | 300° |
| 2026-04-26 11:58 | 18.57362 | -68.37012 | 45 ft | 10 kts | 339° |
| 2026-04-26 11:58 | 18.57397 | -68.36987 | 45 ft | 0 kts | 70° |
| 2026-04-26 11:59 | 18.57399 | -68.36981 | 45 ft | 12 kts | 71° |
| 2026-04-26 11:59 | 18.57488 | -68.36655 | 44 ft | 78 kts | 73° |
| 2026-04-26 11:59 | 18.57667 | -68.35950 | 105 ft | 114 kts | 76° |
| 2026-04-26 12:00 | 18.57894 | -68.35065 | 415 ft | 136 kts | 74° |
| 2026-04-26 12:00 | 18.58171 | -68.34040 | 902 ft | 155 kts | 76° |
| 2026-04-26 12:00 | 18.58031 | -68.32901 | 1405 ft | 165 kts | 122° |
| 2026-04-26 12:00 | 18.57331 | -68.31911 | 1963 ft | 172 kts | 129° |
| 2026-04-26 12:01 | 18.56580 | -68.30897 | 2526 ft | 179 kts | 130° |
| 2026-04-26 12:01 | 18.55776 | -68.29855 | 3095 ft | 189 kts | 127° |
| 2026-04-26 12:01 | 18.55162 | -68.28619 | 3654 ft | 198 kts | 111° |
| 2026-04-26 12:01 | 18.54801 | -68.27201 | 4218 ft | 203 kts | 104° |
| 2026-04-26 12:02 | 18.54484 | -68.25734 | 4787 ft | 207 kts | 105° |
| 2026-04-26 12:02 | 18.54139 | -68.24249 | 5353 ft | 211 kts | 105° |
| 2026-04-26 12:02 | 18.53776 | -68.22741 | 5911 ft | 214 kts | 105° |
| 2026-04-26 12:02 | 18.53409 | -68.21210 | 6472 ft | 217 kts | 105° |
| 2026-04-26 12:03 | 18.53040 | -68.19665 | 7001 ft | 219 kts | 106° |
| 2026-04-26 12:03 | 18.52668 | -68.18104 | 7543 ft | 220 kts | 106° |
| 2026-04-26 12:03 | 18.52294 | -68.16538 | 8093 ft | 221 kts | 106° |
| 2026-04-26 12:03 | 18.51924 | -68.14989 | 8640 ft | 222 kts | 107° |
| 2026-04-26 12:04 | 18.51546 | -68.13410 | 9211 ft | 223 kts | 107° |
| 2026-04-26 12:04 | 18.51165 | -68.11817 | 9798 ft | 225 kts | 107° |
| 2026-04-26 12:04 | 18.50781 | -68.10211 | 10319 ft | 227 kts | 107° |
| 2026-04-26 12:04 | 18.50393 | -68.08591 | 10853 ft | 228 kts | 107° |
| 2026-04-26 12:05 | 18.50006 | -68.06971 | 11393 ft | 229 kts | 107° |
| 2026-04-26 12:05 | 18.49616 | -68.05345 | 11943 ft | 229 kts | 107° |
| 2026-04-26 12:05 | 18.49226 | -68.03717 | 12503 ft | 229 kts | 107° |
| 2026-04-26 12:05 | 18.48836 | -68.02088 | 13073 ft | 229 kts | 108° |
| 2026-04-26 12:06 | 18.48454 | -68.00480 | 13641 ft | 229 kts | 106° |
| 2026-04-26 12:06 | 18.48353 | -67.98801 | 14169 ft | 231 kts | 90° |
| 2026-04-26 12:06 | 18.48400 | -67.97106 | 14682 ft | 232 kts | 91° |
| 2026-04-26 12:06 | 18.48425 | -67.95369 | 14981 ft | 244 kts | 91° |
| 2026-04-26 12:07 | 18.48453 | -67.93515 | 15032 ft | 262 kts | 91° |
| 2026-04-26 12:07 | 18.48491 | -67.91551 | 15036 ft | 273 kts | 91° |
| 2026-04-26 12:07 | 18.48532 | -67.89535 | 15036 ft | 278 kts | 91° |
| 2026-04-26 12:07 | 18.48571 | -67.87488 | 15031 ft | 281 kts | 91° |
| 2026-04-26 12:08 | 18.48608 | -67.85426 | 15034 ft | 282 kts | 91° |
| 2026-04-26 12:08 | 18.48647 | -67.83358 | 15032 ft | 282 kts | 91° |
| 2026-04-26 12:08 | 18.48684 | -67.81318 | 15031 ft | 283 kts | 91° |
| 2026-04-26 12:08 | 18.48722 | -67.79247 | 15034 ft | 283 kts | 91° |
| 2026-04-26 12:09 | 18.48759 | -67.77175 | 15035 ft | 283 kts | 91° |
| 2026-04-26 12:09 | 18.48797 | -67.75105 | 15037 ft | 283 kts | 91° |
| 2026-04-26 12:09 | 18.48834 | -67.73033 | 15037 ft | 283 kts | 91° |
| 2026-04-26 12:09 | 18.48870 | -67.70961 | 15036 ft | 283 kts | 91° |
| 2026-04-26 12:10 | 18.48907 | -67.68890 | 15034 ft | 283 kts | 91° |
| 2026-04-26 12:10 | 18.48943 | -67.66817 | 15035 ft | 283 kts | 91° |
| 2026-04-26 12:10 | 18.48980 | -67.64751 | 15035 ft | 283 kts | 91° |
| 2026-04-26 12:10 | 18.49015 | -67.62705 | 15035 ft | 283 kts | 91° |
| 2026-04-26 12:11 | 18.49051 | -67.60636 | 15033 ft | 283 kts | 91° |
| 2026-04-26 12:11 | 18.49086 | -67.58568 | 15034 ft | 283 kts | 91° |
| 2026-04-26 12:11 | 18.49121 | -67.56499 | 15034 ft | 283 kts | 91° |
| 2026-04-26 12:11 | 18.49156 | -67.54429 | 15034 ft | 283 kts | 91° |
| 2026-04-26 12:12 | 18.49191 | -67.52357 | 15035 ft | 283 kts | 91° |
| 2026-04-26 12:12 | 18.49226 | -67.50287 | 15036 ft | 283 kts | 91° |
| 2026-04-26 12:12 | 18.49260 | -67.48218 | 15039 ft | 283 kts | 91° |
| 2026-04-26 12:12 | 18.49282 | -67.46849 | 15041 ft | 283 kts | 91° |
| 2026-04-26 12:13 | 18.49327 | -67.44109 | 15040 ft | 283 kts | 91° |
| 2026-04-26 12:13 | 18.49361 | -67.42038 | 15044 ft | 282 kts | 91° |
| 2026-04-26 12:13 | 18.49394 | -67.39972 | 15045 ft | 282 kts | 91° |
| 2026-04-26 12:13 | 18.49428 | -67.37902 | 15045 ft | 282 kts | 91° |
| 2026-04-26 12:14 | 18.49460 | -67.35835 | 15050 ft | 282 kts | 91° |
| 2026-04-26 12:14 | 18.49493 | -67.33770 | 15052 ft | 282 kts | 91° |
| 2026-04-26 12:14 | 18.49526 | -67.31701 | 15052 ft | 282 kts | 91° |
| 2026-04-26 12:14 | 18.49557 | -67.29663 | 15055 ft | 282 kts | 91° |
| 2026-04-26 12:15 | 18.49589 | -67.27596 | 15056 ft | 282 kts | 91° |
| 2026-04-26 12:15 | 18.49621 | -67.25529 | 15057 ft | 282 kts | 91° |
| 2026-04-26 12:15 | 18.49653 | -67.23463 | 15057 ft | 282 kts | 91° |
| 2026-04-26 12:15 | 18.49684 | -67.21397 | 15059 ft | 282 kts | 91° |
| 2026-04-26 12:16 | 18.49715 | -67.19331 | 15057 ft | 282 kts | 91° |
| 2026-04-26 12:16 | 18.49746 | -67.17261 | 15058 ft | 282 kts | 91° |
| 2026-04-26 12:16 | 18.49777 | -67.15195 | 15056 ft | 282 kts | 91° |
| 2026-04-26 12:16 | 18.49807 | -67.13127 | 15058 ft | 283 kts | 91° |
| 2026-04-26 12:17 | 18.49836 | -67.11083 | 15058 ft | 282 kts | 91° |
| 2026-04-26 12:17 | 18.49760 | -67.09020 | 15060 ft | 282 kts | 95° |
| 2026-04-26 12:17 | 18.49665 | -67.06959 | 15053 ft | 282 kts | 95° |
| 2026-04-26 12:17 | 18.49579 | -67.04894 | 15056 ft | 282 kts | 95° |
| 2026-04-26 12:18 | 18.49490 | -67.02830 | 15057 ft | 282 kts | 95° |
| 2026-04-26 12:18 | 18.49398 | -67.00765 | 15057 ft | 282 kts | 95° |
| 2026-04-26 12:18 | 18.49307 | -66.98701 | 15055 ft | 282 kts | 95° |
| 2026-04-26 12:18 | 18.49216 | -66.96633 | 15053 ft | 282 kts | 95° |
| 2026-04-26 12:19 | 18.49125 | -66.94597 | 15053 ft | 282 kts | 95° |
| 2026-04-26 12:19 | 18.49032 | -66.92533 | 15047 ft | 282 kts | 95° |
| 2026-04-26 12:19 | 18.48940 | -66.90470 | 15049 ft | 282 kts | 95° |
| 2026-04-26 12:19 | 18.48848 | -66.88411 | 15047 ft | 282 kts | 95° |
| 2026-04-26 12:20 | 18.48756 | -66.86348 | 15047 ft | 282 kts | 95° |
| 2026-04-26 12:20 | 18.48662 | -66.84284 | 15052 ft | 282 kts | 95° |
| 2026-04-26 12:20 | 18.48570 | -66.82217 | 15050 ft | 283 kts | 95° |
| 2026-04-26 12:20 | 18.48477 | -66.80147 | 15049 ft | 283 kts | 95° |
| 2026-04-26 12:21 | 18.48383 | -66.78080 | 15048 ft | 283 kts | 95° |
| 2026-04-26 12:21 | 18.48289 | -66.76015 | 15047 ft | 283 kts | 95° |
| 2026-04-26 12:21 | 18.48196 | -66.73974 | 15047 ft | 282 kts | 95° |
| 2026-04-26 12:21 | 18.48102 | -66.71913 | 15050 ft | 282 kts | 95° |
| 2026-04-26 12:22 | 18.48008 | -66.69853 | 15051 ft | 282 kts | 95° |
| 2026-04-26 12:22 | 18.47913 | -66.67789 | 15052 ft | 283 kts | 95° |
| 2026-04-26 12:22 | 18.47818 | -66.65721 | 15051 ft | 283 kts | 95° |
| 2026-04-26 12:22 | 18.47724 | -66.63653 | 15049 ft | 282 kts | 95° |
| 2026-04-26 12:23 | 18.47628 | -66.61591 | 15048 ft | 282 kts | 95° |
| 2026-04-26 12:23 | 18.47532 | -66.59527 | 15047 ft | 282 kts | 95° |
| 2026-04-26 12:23 | 18.47436 | -66.57467 | 15046 ft | 282 kts | 95° |
| 2026-04-26 12:23 | 18.47342 | -66.55433 | 15001 ft | 284 kts | 95° |
| 2026-04-26 12:24 | 18.47243 | -66.53334 | 14720 ft | 287 kts | 95° |
| 2026-04-26 12:24 | 18.47144 | -66.51231 | 14443 ft | 288 kts | 95° |
| 2026-04-26 12:24 | 18.47047 | -66.49127 | 14177 ft | 288 kts | 95° |
| 2026-04-26 12:25 | 18.46851 | -66.44930 | 13608 ft | 286 kts | 95° |
| 2026-04-26 12:25 | 18.46752 | -66.42841 | 13301 ft | 285 kts | 95° |
| 2026-04-26 12:25 | 18.46652 | -66.40757 | 12999 ft | 284 kts | 95° |
| 2026-04-26 12:25 | 18.46555 | -66.38707 | 12701 ft | 284 kts | 95° |
| 2026-04-26 12:26 | 18.46457 | -66.36636 | 12406 ft | 283 kts | 94° |
| 2026-04-26 12:26 | 18.46359 | -66.34568 | 12113 ft | 282 kts | 94° |
| 2026-04-26 12:26 | 18.46260 | -66.32506 | 11822 ft | 282 kts | 94° |
| 2026-04-26 12:26 | 18.46162 | -66.30446 | 11532 ft | 281 kts | 94° |
| 2026-04-26 12:27 | 18.46064 | -66.28390 | 11248 ft | 281 kts | 94° |
| 2026-04-26 12:27 | 18.45964 | -66.26337 | 10967 ft | 281 kts | 94° |
| 2026-04-26 12:27 | 18.45866 | -66.24287 | 10685 ft | 280 kts | 94° |
| 2026-04-26 12:27 | 18.45767 | -66.22240 | 10402 ft | 280 kts | 94° |
| 2026-04-26 12:28 | 18.45670 | -66.20231 | 10133 ft | 278 kts | 94° |
| 2026-04-26 12:28 | 18.45572 | -66.18197 | 9857 ft | 278 kts | 94° |
| 2026-04-26 12:28 | 18.45473 | -66.16173 | 9548 ft | 276 kts | 94° |
| 2026-04-26 12:28 | 18.45376 | -66.14160 | 9249 ft | 275 kts | 94° |
| 2026-04-26 12:29 | 18.45277 | -66.12160 | 9045 ft | 271 kts | 94° |
| 2026-04-26 12:29 | 18.45181 | -66.10191 | 9049 ft | 268 kts | 94° |
| 2026-04-26 12:29 | 18.44991 | -66.06303 | 9049 ft | 264 kts | 94° |
| 2026-04-26 12:30 | 18.44896 | -66.04372 | 9055 ft | 264 kts | 94° |
| 2026-04-26 12:30 | 18.44801 | -66.02447 | 9051 ft | 263 kts | 94° |
| 2026-04-26 12:30 | 18.44708 | -66.00551 | 9050 ft | 262 kts | 94° |
| 2026-04-26 12:31 | 18.44188 | -65.96777 | 9022 ft | 261 kts | 103° |
| 2026-04-26 12:31 | 18.43795 | -65.94879 | 8724 ft | 268 kts | 103° |
| 2026-04-26 12:31 | 18.43409 | -65.92957 | 8435 ft | 269 kts | 103° |
| 2026-04-26 12:31 | 18.43021 | -65.91036 | 8150 ft | 268 kts | 103° |
| 2026-04-26 12:32 | 18.42631 | -65.89119 | 7859 ft | 267 kts | 103° |
| 2026-04-26 12:32 | 18.42242 | -65.87216 | 7568 ft | 265 kts | 103° |
| 2026-04-26 12:32 | 18.41480 | -65.83471 | 7006 ft | 263 kts | 103° |
| 2026-04-26 12:33 | 18.41097 | -65.81594 | 6741 ft | 261 kts | 103° |
| 2026-04-26 12:33 | 18.40720 | -65.79727 | 6456 ft | 260 kts | 103° |
| 2026-04-26 12:33 | 18.40339 | -65.77872 | 6155 ft | 258 kts | 103° |
| 2026-04-26 12:33 | 18.39960 | -65.76027 | 5857 ft | 257 kts | 103° |
| 2026-04-26 12:34 | 18.39587 | -65.74194 | 5566 ft | 256 kts | 103° |
| 2026-04-26 12:34 | 18.39220 | -65.72392 | 5279 ft | 255 kts | 103° |
| 2026-04-26 12:34 | 18.38849 | -65.70577 | 5058 ft | 252 kts | 103° |
| 2026-04-26 12:34 | 18.38485 | -65.68799 | 5051 ft | 246 kts | 103° |
| 2026-04-26 12:35 | 18.38126 | -65.67046 | 5047 ft | 244 kts | 103° |
| 2026-04-26 12:35 | 18.37769 | -65.65303 | 5044 ft | 244 kts | 103° |
| 2026-04-26 12:35 | 18.37412 | -65.63557 | 5045 ft | 243 kts | 103° |
| 2026-04-26 12:35 | 18.37163 | -65.61803 | 5043 ft | 243 kts | 97° |
| 2026-04-26 12:36 | 18.37001 | -65.60031 | 5043 ft | 244 kts | 96° |
| 2026-04-26 12:36 | 18.36831 | -65.58255 | 5041 ft | 244 kts | 97° |
| 2026-04-26 12:36 | 18.36657 | -65.56505 | 5042 ft | 244 kts | 97° |
| 2026-04-26 12:36 | 18.36481 | -65.54731 | 5044 ft | 244 kts | 97° |
| 2026-04-26 12:37 | 18.36307 | -65.52956 | 5027 ft | 244 kts | 97° |
| 2026-04-26 12:37 | 18.36129 | -65.51145 | 4730 ft | 251 kts | 97° |
| 2026-04-26 12:37 | 18.35947 | -65.49314 | 4432 ft | 251 kts | 97° |
| 2026-04-26 12:37 | 18.35768 | -65.47492 | 4143 ft | 250 kts | 97° |
| 2026-04-26 12:38 | 18.35589 | -65.45675 | 3847 ft | 248 kts | 97° |
| 2026-04-26 12:38 | 18.35411 | -65.43874 | 3553 ft | 247 kts | 97° |
| 2026-04-26 12:38 | 18.35234 | -65.42080 | 3271 ft | 246 kts | 97° |
| 2026-04-26 12:38 | 18.35063 | -65.40296 | 2975 ft | 244 kts | 96° |
| 2026-04-26 12:39 | 18.34904 | -65.38557 | 2848 ft | 238 kts | 97° |
| 2026-04-26 12:39 | 18.34756 | -65.36841 | 2843 ft | 234 kts | 96° |
| 2026-04-26 12:39 | 18.34617 | -65.35141 | 2839 ft | 233 kts | 96° |
| 2026-04-26 12:39 | 18.34486 | -65.33442 | 2848 ft | 234 kts | 95° |
| 2026-04-26 12:40 | 18.34358 | -65.31735 | 2837 ft | 233 kts | 96° |
| 2026-04-26 12:40 | 18.34241 | -65.30034 | 2838 ft | 233 kts | 95° |
| 2026-04-26 12:40 | 18.34134 | -65.28329 | 2836 ft | 233 kts | 95° |
| 2026-04-26 12:40 | 18.34035 | -65.26632 | 2838 ft | 233 kts | 94° |
| 2026-04-26 12:41 | 18.33948 | -65.24914 | 2826 ft | 238 kts | 94° |
| 2026-04-26 12:41 | 18.33869 | -65.23218 | 2837 ft | 234 kts | 94° |
| 2026-04-26 12:41 | 18.33794 | -65.21512 | 2837 ft | 233 kts | 94° |
| 2026-04-26 12:41 | 18.33725 | -65.19809 | 2835 ft | 232 kts | 93° |
| 2026-04-26 12:42 | 18.33663 | -65.18114 | 2834 ft | 231 kts | 95° |
| 2026-04-26 12:42 | 18.33263 | -65.16512 | 2836 ft | 220 kts | 111° |
| 2026-04-26 12:42 | 18.32913 | -65.14966 | 2835 ft | 216 kts | 98° |
| 2026-04-26 12:42 | 18.32909 | -65.13380 | 2735 ft | 220 kts | 88° |
| 2026-04-26 12:43 | 18.32991 | -65.11757 | 2462 ft | 222 kts | 88° |
| 2026-04-26 12:43 | 18.33070 | -65.10167 | 2175 ft | 215 kts | 88° |
| 2026-04-26 12:43 | 18.33148 | -65.08663 | 1907 ft | 191 kts | 88° |
| 2026-04-26 12:43 | 18.33216 | -65.07362 | 1672 ft | 173 kts | 89° |
| 2026-04-26 12:44 | 18.33276 | -65.06200 | 1463 ft | 147 kts | 89° |
| 2026-04-26 12:44 | 18.33331 | -65.05160 | 1279 ft | 139 kts | 89° |
| 2026-04-26 12:44 | 18.33383 | -65.04159 | 1102 ft | 136 kts | 89° |
| 2026-04-26 12:44 | 18.33434 | -65.03170 | 931 ft | 135 kts | 89° |
| 2026-04-26 12:45 | 18.33484 | -65.02186 | 755 ft | 134 kts | 89° |
| 2026-04-26 12:45 | 18.33535 | -65.01216 | 650 ft | 129 kts | 86° |
| 2026-04-26 12:45 | 18.33597 | -65.00262 | 511 ft | 131 kts | 88° |
| 2026-04-26 12:45 | 18.33641 | -64.99304 | 312 ft | 135 kts | 89° |
| 2026-04-26 12:46 | 18.33685 | -64.98321 | 55 ft | 127 kts | 88° |
| 2026-04-26 12:46 | 18.33725 | -64.97575 | 25 ft | 81 kts | 88° |
| 2026-04-26 12:46 | 18.33746 | -64.97055 | 19 ft | 58 kts | 87° |
| 2026-04-26 12:46 | 18.33751 | -64.96835 | 14 ft | 14 kts | 89° |
| 2026-04-26 12:47 | 18.33755 | -64.96765 | 13 ft | 11 kts | 86° |
| 2026-04-26 12:47 | 18.33764 | -64.96703 | 13 ft | 3 kts | 62° |
| 2026-04-26 12:47 | 18.33806 | -64.96688 | 13 ft | 12 kts | 355° |
| 2026-04-26 12:47 | 18.33841 | -64.96693 | 14 ft | 6 kts | 2° |
| 2026-04-26 12:48 | 18.33888 | -64.96692 | 14 ft | 10 kts | 356° |
| 2026-04-26 12:48 | 18.33910 | -64.96718 | 15 ft | 0 kts | 253° |
| 2026-04-26 12:48 | 18.33906 | -64.96725 | 15 ft | 6 kts | 225° |
| 2026-04-26 12:48 | 18.33891 | -64.96728 | 15 ft | 0 kts | 184° |